sensor_id;sensor_type;location;lat;lon;timestamp;P1;durP1;ratioP1;P2;durP2;ratioP2
11427;SDS011;5770;44.504;11.346;2023-02-26T00:01:27;43.40;;;31.73;;
11427;SDS011;5770;44.504;11.346;2023-02-26T00:03:56;41.42;;;30.85;;
11427;SDS011;5770;44.504;11.346;2023-02-26T00:06:25;50.60;;;32.45;;
11427;SDS011;5770;44.504;11.346;2023-02-26T00:08:53;45.58;;;30.63;;
11427;SDS011;5770;44.504;11.346;2023-02-26T00:11:21;40.35;;;31.27;;
11427;SDS011;5770;44.504;11.346;2023-02-26T00:13:48;42.78;;;29.83;;
11427;SDS011;5770;44.504;11.346;2023-02-26T00:16:20;43.05;;;30.08;;
11427;SDS011;5770;44.504;11.346;2023-02-26T00:18:48;41.80;;;30.13;;
11427;SDS011;5770;44.504;11.346;2023-02-26T00:21:19;41.95;;;29.90;;
11427;SDS011;5770;44.504;11.346;2023-02-26T00:23:47;45.95;;;30.73;;
11427;SDS011;5770;44.504;11.346;2023-02-26T00:26:16;44.65;;;30.85;;
11427;SDS011;5770;44.504;11.346;2023-02-26T00:28:43;44.67;;;30.88;;
11427;SDS011;5770;44.504;11.346;2023-02-26T00:31:12;48.78;;;30.98;;
11427;SDS011;5770;44.504;11.346;2023-02-26T00:33:40;44.33;;;29.80;;
11427;SDS011;5770;44.504;11.346;2023-02-26T00:36:12;41.97;;;29.13;;
11427;SDS011;5770;44.504;11.346;2023-02-26T00:38:50;38.10;;;29.15;;
11427;SDS011;5770;44.504;11.346;2023-02-26T00:41:29;40.72;;;28.60;;
11427;SDS011;5770;44.504;11.346;2023-02-26T00:43:56;44.30;;;30.25;;
11427;SDS011;5770;44.504;11.346;2023-02-26T00:46:26;47.90;;;29.58;;
11427;SDS011;5770;44.504;11.346;2023-02-26T00:49:02;45.72;;;30.65;;
11427;SDS011;5770;44.504;11.346;2023-02-26T00:51:31;39.03;;;28.88;;
11427;SDS011;5770;44.504;11.346;2023-02-26T00:54:07;44.20;;;29.17;;
11427;SDS011;5770;44.504;11.346;2023-02-26T00:56:39;38.08;;;28.05;;
11427;SDS011;5770;44.504;11.346;2023-02-26T00:59:07;40.53;;;28.98;;
11427;SDS011;5770;44.504;11.346;2023-02-26T01:01:34;38.55;;;28.10;;
11427;SDS011;5770;44.504;11.346;2023-02-26T01:04:01;41.08;;;29.33;;
11427;SDS011;5770;44.504;11.346;2023-02-26T01:06:29;39.22;;;29.20;;
11427;SDS011;5770;44.504;11.346;2023-02-26T01:09:01;43.80;;;29.67;;
11427;SDS011;5770;44.504;11.346;2023-02-26T01:11:29;38.63;;;29.25;;
11427;SDS011;5770;44.504;11.346;2023-02-26T01:13:58;41.35;;;28.88;;
11427;SDS011;5770;44.504;11.346;2023-02-26T01:16:26;38.70;;;30.58;;
11427;SDS011;5770;44.504;11.346;2023-02-26T01:18:57;44.42;;;32.15;;
11427;SDS011;5770;44.504;11.346;2023-02-26T01:21:27;51.33;;;34.97;;
11427;SDS011;5770;44.504;11.346;2023-02-26T01:23:58;52.95;;;35.00;;
11427;SDS011;5770;44.504;11.346;2023-02-26T01:26:30;48.75;;;35.40;;
11427;SDS011;5770;44.504;11.346;2023-02-26T01:28:59;49.65;;;36.30;;
11427;SDS011;5770;44.504;11.346;2023-02-26T01:31:34;46.25;;;35.05;;
11427;SDS011;5770;44.504;11.346;2023-02-26T01:34:08;44.75;;;35.28;;
11427;SDS011;5770;44.504;11.346;2023-02-26T01:36:45;46.25;;;34.97;;
11427;SDS011;5770;44.504;11.346;2023-02-26T01:39:23;49.05;;;34.97;;
11427;SDS011;5770;44.504;11.346;2023-02-26T01:41:53;51.00;;;36.45;;
11427;SDS011;5770;44.504;11.346;2023-02-26T01:44:26;48.42;;;36.75;;
11427;SDS011;5770;44.504;11.346;2023-02-26T01:47:01;52.42;;;38.35;;
11427;SDS011;5770;44.504;11.346;2023-02-26T01:49:30;55.47;;;38.20;;
11427;SDS011;5770;44.504;11.346;2023-02-26T01:51:58;60.40;;;39.63;;
11427;SDS011;5770;44.504;11.346;2023-02-26T01:54:27;53.58;;;38.97;;
11427;SDS011;5770;44.504;11.346;2023-02-26T01:56:55;54.10;;;38.13;;
11427;SDS011;5770;44.504;11.346;2023-02-26T01:59:26;55.35;;;38.63;;
11427;SDS011;5770;44.504;11.346;2023-02-26T02:01:55;58.70;;;38.30;;
11427;SDS011;5770;44.504;11.346;2023-02-26T02:04:24;54.97;;;39.08;;
11427;SDS011;5770;44.504;11.346;2023-02-26T02:06:52;47.22;;;37.00;;
11427;SDS011;5770;44.504;11.346;2023-02-26T02:09:19;52.53;;;37.35;;
11427;SDS011;5770;44.504;11.346;2023-02-26T02:11:51;54.30;;;37.55;;
11427;SDS011;5770;44.504;11.346;2023-02-26T02:14:40;53.40;;;37.30;;
11427;SDS011;5770;44.504;11.346;2023-02-26T02:17:16;54.20;;;36.60;;
11427;SDS011;5770;44.504;11.346;2023-02-26T02:19:54;60.20;;;37.67;;
11427;SDS011;5770;44.504;11.346;2023-02-26T02:28:36;51.60;;;36.65;;
11427;SDS011;5770;44.504;11.346;2023-02-26T02:31:10;55.25;;;38.30;;
11427;SDS011;5770;44.504;11.346;2023-02-26T02:33:41;54.72;;;38.47;;
11427;SDS011;5770;44.504;11.346;2023-02-26T02:36:13;55.47;;;39.70;;
11427;SDS011;5770;44.504;11.346;2023-02-26T02:38:43;53.40;;;39.15;;
11427;SDS011;5770;44.504;11.346;2023-02-26T02:41:14;50.92;;;36.63;;
11427;SDS011;5770;44.504;11.346;2023-02-26T02:43:43;54.47;;;37.08;;
11427;SDS011;5770;44.504;11.346;2023-02-26T02:46:13;53.63;;;37.85;;
11427;SDS011;5770;44.504;11.346;2023-02-26T02:48:43;49.92;;;36.28;;
11427;SDS011;5770;44.504;11.346;2023-02-26T02:51:11;51.08;;;36.10;;
11427;SDS011;5770;44.504;11.346;2023-02-26T02:53:43;46.92;;;37.65;;
11427;SDS011;5770;44.504;11.346;2023-02-26T02:56:14;49.38;;;36.78;;
11427;SDS011;5770;44.504;11.346;2023-02-26T02:58:43;53.65;;;38.40;;
11427;SDS011;5770;44.504;11.346;2023-02-26T03:01:17;42.53;;;34.00;;
11427;SDS011;5770;44.504;11.346;2023-02-26T03:03:47;45.15;;;35.85;;
11427;SDS011;5770;44.504;11.346;2023-02-26T03:06:20;42.97;;;33.72;;
11427;SDS011;5770;44.504;11.346;2023-02-26T03:08:47;43.53;;;33.83;;
11427;SDS011;5770;44.504;11.346;2023-02-26T03:11:15;41.50;;;32.28;;
11427;SDS011;5770;44.504;11.346;2023-02-26T03:13:43;39.65;;;32.88;;
11427;SDS011;5770;44.504;11.346;2023-02-26T03:16:20;41.55;;;33.42;;
11427;SDS011;5770;44.504;11.346;2023-02-26T03:18:52;45.47;;;32.80;;
11427;SDS011;5770;44.504;11.346;2023-02-26T03:21:25;45.05;;;34.40;;
11427;SDS011;5770;44.504;11.346;2023-02-26T03:24:00;40.97;;;34.10;;
11427;SDS011;5770;44.504;11.346;2023-02-26T03:26:31;38.28;;;32.65;;
11427;SDS011;5770;44.504;11.346;2023-02-26T03:29:01;41.70;;;33.20;;
11427;SDS011;5770;44.504;11.346;2023-02-26T03:31:34;35.17;;;27.75;;
11427;SDS011;5770;44.504;11.346;2023-02-26T03:34:07;15.65;;;11.95;;
11427;SDS011;5770;44.504;11.346;2023-02-26T03:36:36;7.50;;;5.28;;
11427;SDS011;5770;44.504;11.346;2023-02-26T03:39:08;5.30;;;3.80;;
11427;SDS011;5770;44.504;11.346;2023-02-26T03:41:38;6.43;;;3.60;;
11427;SDS011;5770;44.504;11.346;2023-02-26T03:44:11;3.85;;;2.47;;
11427;SDS011;5770;44.504;11.346;2023-02-26T03:46:47;4.15;;;2.20;;
11427;SDS011;5770;44.504;11.346;2023-02-26T03:49:16;4.95;;;1.90;;
11427;SDS011;5770;44.504;11.346;2023-02-26T03:51:47;2.15;;;1.50;;
11427;SDS011;5770;44.504;11.346;2023-02-26T03:54:14;5.88;;;1.80;;
11427;SDS011;5770;44.504;11.346;2023-02-26T03:56:44;3.78;;;1.83;;
11427;SDS011;5770;44.504;11.346;2023-02-26T03:59:12;4.32;;;1.80;;
11427;SDS011;5770;44.504;11.346;2023-02-26T04:01:41;3.78;;;1.90;;
11427;SDS011;5770;44.504;11.346;2023-02-26T04:04:16;6.15;;;2.15;;
11427;SDS011;5770;44.504;11.346;2023-02-26T04:06:47;3.10;;;1.38;;
11427;SDS011;5770;44.504;11.346;2023-02-26T04:09:17;2.55;;;1.40;;
11427;SDS011;5770;44.504;11.346;2023-02-26T04:11:44;2.10;;;1.15;;
11427;SDS011;5770;44.504;11.346;2023-02-26T04:14:13;2.38;;;1.00;;
11427;SDS011;5770;44.504;11.346;2023-02-26T04:16:40;2.38;;;1.20;;
11427;SDS011;5770;44.504;11.346;2023-02-26T04:19:08;4.55;;;1.30;;
11427;SDS011;5770;44.504;11.346;2023-02-26T04:21:36;2.22;;;1.10;;
11427;SDS011;5770;44.504;11.346;2023-02-26T04:24:04;2.35;;;1.15;;
11427;SDS011;5770;44.504;11.346;2023-02-26T04:26:31;2.60;;;1.00;;
11427;SDS011;5770;44.504;11.346;2023-02-26T04:28:58;3.65;;;0.90;;
11427;SDS011;5770;44.504;11.346;2023-02-26T04:31:26;1.98;;;1.13;;
11427;SDS011;5770;44.504;11.346;2023-02-26T04:33:53;2.67;;;1.27;;
11427;SDS011;5770;44.504;11.346;2023-02-26T04:36:22;2.15;;;1.25;;
11427;SDS011;5770;44.504;11.346;2023-02-26T04:38:51;2.45;;;0.95;;
11427;SDS011;5770;44.504;11.346;2023-02-26T04:41:18;2.40;;;0.90;;
11427;SDS011;5770;44.504;11.346;2023-02-26T04:43:45;2.40;;;0.98;;
11427;SDS011;5770;44.504;11.346;2023-02-26T04:46:12;4.70;;;1.30;;
11427;SDS011;5770;44.504;11.346;2023-02-26T04:48:39;2.42;;;1.17;;
11427;SDS011;5770;44.504;11.346;2023-02-26T04:51:06;2.13;;;0.95;;
11427;SDS011;5770;44.504;11.346;2023-02-26T04:53:33;3.42;;;1.13;;
11427;SDS011;5770;44.504;11.346;2023-02-26T04:56:02;1.63;;;0.90;;
11427;SDS011;5770;44.504;11.346;2023-02-26T04:58:29;3.22;;;1.20;;
11427;SDS011;5770;44.504;11.346;2023-02-26T05:00:56;1.02;;;0.90;;
11427;SDS011;5770;44.504;11.346;2023-02-26T05:03:23;2.63;;;1.10;;
11427;SDS011;5770;44.504;11.346;2023-02-26T05:05:50;1.58;;;1.08;;
11427;SDS011;5770;44.504;11.346;2023-02-26T05:08:17;2.20;;;1.35;;
11427;SDS011;5770;44.504;11.346;2023-02-26T05:10:44;1.98;;;1.23;;
11427;SDS011;5770;44.504;11.346;2023-02-26T05:13:13;2.75;;;1.27;;
11427;SDS011;5770;44.504;11.346;2023-02-26T05:15:40;3.03;;;1.13;;
11427;SDS011;5770;44.504;11.346;2023-02-26T05:18:07;1.98;;;1.38;;
11427;SDS011;5770;44.504;11.346;2023-02-26T05:20:34;2.90;;;1.23;;
11427;SDS011;5770;44.504;11.346;2023-02-26T05:23:01;2.88;;;1.20;;
11427;SDS011;5770;44.504;11.346;2023-02-26T05:25:28;2.05;;;1.35;;
11427;SDS011;5770;44.504;11.346;2023-02-26T05:27:55;6.38;;;1.58;;
11427;SDS011;5770;44.504;11.346;2023-02-26T05:30:23;3.85;;;1.17;;
11427;SDS011;5770;44.504;11.346;2023-02-26T05:32:50;3.63;;;1.00;;
11427;SDS011;5770;44.504;11.346;2023-02-26T05:35:18;3.85;;;1.30;;
11427;SDS011;5770;44.504;11.346;2023-02-26T05:37:46;27.17;;;2.40;;
11427;SDS011;5770;44.504;11.346;2023-02-26T05:40:13;5.38;;;1.30;;
11427;SDS011;5770;44.504;11.346;2023-02-26T05:42:40;10.57;;;1.48;;
11427;SDS011;5770;44.504;11.346;2023-02-26T05:45:07;4.60;;;1.30;;
11427;SDS011;5770;44.504;11.346;2023-02-26T05:47:36;3.13;;;1.02;;
11427;SDS011;5770;44.504;11.346;2023-02-26T05:50:03;2.38;;;1.00;;
11427;SDS011;5770;44.504;11.346;2023-02-26T05:52:32;2.60;;;1.10;;
11427;SDS011;5770;44.504;11.346;2023-02-26T05:54:58;2.05;;;1.00;;
11427;SDS011;5770;44.504;11.346;2023-02-26T05:57:25;1.80;;;1.00;;
11427;SDS011;5770;44.504;11.346;2023-02-26T05:59:52;2.20;;;1.10;;
11427;SDS011;5770;44.504;11.346;2023-02-26T06:02:19;3.35;;;1.05;;
11427;SDS011;5770;44.504;11.346;2023-02-26T06:04:48;2.33;;;1.25;;
11427;SDS011;5770;44.504;11.346;2023-02-26T06:07:15;2.42;;;1.02;;
11427;SDS011;5770;44.504;11.346;2023-02-26T06:09:42;2.65;;;1.13;;
11427;SDS011;5770;44.504;11.346;2023-02-26T06:12:09;2.25;;;1.50;;
11427;SDS011;5770;44.504;11.346;2023-02-26T06:14:36;2.35;;;1.20;;
11427;SDS011;5770;44.504;11.346;2023-02-26T06:17:04;3.47;;;1.67;;
11427;SDS011;5770;44.504;11.346;2023-02-26T06:19:32;1.88;;;1.02;;
11427;SDS011;5770;44.504;11.346;2023-02-26T06:22:00;12.00;;;1.23;;
11427;SDS011;5770;44.504;11.346;2023-02-26T06:24:27;2.92;;;1.02;;
11427;SDS011;5770;44.504;11.346;2023-02-26T06:26:54;4.55;;;1.80;;
11427;SDS011;5770;44.504;11.346;2023-02-26T06:29:21;4.35;;;1.40;;
11427;SDS011;5770;44.504;11.346;2023-02-26T06:31:48;2.80;;;1.20;;
11427;SDS011;5770;44.504;11.346;2023-02-26T06:34:15;5.05;;;1.60;;
11427;SDS011;5770;44.504;11.346;2023-02-26T06:36:42;6.00;;;1.50;;
11427;SDS011;5770;44.504;11.346;2023-02-26T06:39:11;6.20;;;1.70;;
11427;SDS011;5770;44.504;11.346;2023-02-26T06:41:38;7.43;;;1.83;;
11427;SDS011;5770;44.504;11.346;2023-02-26T06:44:05;5.70;;;1.55;;
11427;SDS011;5770;44.504;11.346;2023-02-26T06:46:32;4.13;;;1.15;;
11427;SDS011;5770;44.504;11.346;2023-02-26T06:49:00;5.93;;;1.40;;
11427;SDS011;5770;44.504;11.346;2023-02-26T06:51:27;4.50;;;1.35;;
11427;SDS011;5770;44.504;11.346;2023-02-26T06:53:57;4.25;;;1.38;;
11427;SDS011;5770;44.504;11.346;2023-02-26T06:56:26;3.45;;;1.15;;
11427;SDS011;5770;44.504;11.346;2023-02-26T06:58:53;3.10;;;1.13;;
11427;SDS011;5770;44.504;11.346;2023-02-26T07:01:20;1.65;;;1.45;;
11427;SDS011;5770;44.504;11.346;2023-02-26T07:03:48;4.35;;;1.30;;
11427;SDS011;5770;44.504;11.346;2023-02-26T07:06:15;2.40;;;1.27;;
11427;SDS011;5770;44.504;11.346;2023-02-26T07:08:42;2.80;;;1.10;;
11427;SDS011;5770;44.504;11.346;2023-02-26T07:11:10;1.90;;;1.00;;
11427;SDS011;5770;44.504;11.346;2023-02-26T07:13:38;1.52;;;0.90;;
11427;SDS011;5770;44.504;11.346;2023-02-26T07:16:05;3.42;;;1.13;;
11427;SDS011;5770;44.504;11.346;2023-02-26T07:18:33;2.72;;;1.27;;
11427;SDS011;5770;44.504;11.346;2023-02-26T07:21:00;3.15;;;1.17;;
11427;SDS011;5770;44.504;11.346;2023-02-26T07:23:28;2.33;;;1.40;;
11427;SDS011;5770;44.504;11.346;2023-02-26T07:25:55;2.97;;;1.30;;
11427;SDS011;5770;44.504;11.346;2023-02-26T07:28:23;3.92;;;1.20;;
11427;SDS011;5770;44.504;11.346;2023-02-26T07:30:52;1.58;;;1.20;;
11427;SDS011;5770;44.504;11.346;2023-02-26T07:33:19;3.63;;;1.52;;
11427;SDS011;5770;44.504;11.346;2023-02-26T07:35:46;2.85;;;1.40;;
11427;SDS011;5770;44.504;11.346;2023-02-26T07:38:14;3.42;;;1.35;;
11427;SDS011;5770;44.504;11.346;2023-02-26T07:40:40;2.72;;;1.10;;
11427;SDS011;5770;44.504;11.346;2023-02-26T07:43:08;3.67;;;1.35;;
11427;SDS011;5770;44.504;11.346;2023-02-26T07:45:35;4.15;;;1.63;;
11427;SDS011;5770;44.504;11.346;2023-02-26T07:48:03;4.88;;;1.27;;
11427;SDS011;5770;44.504;11.346;2023-02-26T07:50:31;3.58;;;1.30;;
11427;SDS011;5770;44.504;11.346;2023-02-26T07:52:58;4.82;;;1.20;;
11427;SDS011;5770;44.504;11.346;2023-02-26T07:55:28;4.50;;;1.60;;
11427;SDS011;5770;44.504;11.346;2023-02-26T07:57:56;3.70;;;1.30;;
11427;SDS011;5770;44.504;11.346;2023-02-26T08:00:23;3.15;;;1.30;;
11427;SDS011;5770;44.504;11.346;2023-02-26T08:02:50;4.25;;;1.60;;
11427;SDS011;5770;44.504;11.346;2023-02-26T08:05:18;3.42;;;1.40;;
11427;SDS011;5770;44.504;11.346;2023-02-26T08:07:45;2.97;;;1.27;;
11427;SDS011;5770;44.504;11.346;2023-02-26T08:10:12;4.72;;;1.73;;
11427;SDS011;5770;44.504;11.346;2023-02-26T08:12:39;2.38;;;1.40;;
11427;SDS011;5770;44.504;11.346;2023-02-26T08:15:07;3.25;;;1.30;;
11427;SDS011;5770;44.504;11.346;2023-02-26T08:17:37;3.72;;;1.38;;
11427;SDS011;5770;44.504;11.346;2023-02-26T08:20:05;3.97;;;1.80;;
11427;SDS011;5770;44.504;11.346;2023-02-26T08:22:35;4.28;;;1.50;;
11427;SDS011;5770;44.504;11.346;2023-02-26T08:25:02;3.42;;;1.63;;
11427;SDS011;5770;44.504;11.346;2023-02-26T08:27:29;3.83;;;1.38;;
11427;SDS011;5770;44.504;11.346;2023-02-26T08:29:56;4.53;;;2.28;;
11427;SDS011;5770;44.504;11.346;2023-02-26T08:32:24;5.00;;;2.28;;
11427;SDS011;5770;44.504;11.346;2023-02-26T08:34:52;3.28;;;1.67;;
11427;SDS011;5770;44.504;11.346;2023-02-26T08:37:19;5.82;;;1.77;;
11427;SDS011;5770;44.504;11.346;2023-02-26T08:39:49;4.25;;;1.83;;
11427;SDS011;5770;44.504;11.346;2023-02-26T08:42:16;5.55;;;1.88;;
11427;SDS011;5770;44.504;11.346;2023-02-26T08:44:44;2.58;;;1.27;;
11427;SDS011;5770;44.504;11.346;2023-02-26T08:47:11;5.07;;;1.70;;
11427;SDS011;5770;44.504;11.346;2023-02-26T08:49:39;4.68;;;1.52;;
11427;SDS011;5770;44.504;11.346;2023-02-26T08:52:05;3.97;;;1.38;;
11427;SDS011;5770;44.504;11.346;2023-02-26T08:54:32;5.45;;;1.60;;
11427;SDS011;5770;44.504;11.346;2023-02-26T08:57:01;8.27;;;1.95;;
11427;SDS011;5770;44.504;11.346;2023-02-26T08:59:28;5.63;;;1.73;;
11427;SDS011;5770;44.504;11.346;2023-02-26T09:01:55;4.47;;;1.65;;
11427;SDS011;5770;44.504;11.346;2023-02-26T09:04:22;8.43;;;2.78;;
11427;SDS011;5770;44.504;11.346;2023-02-26T09:06:50;5.15;;;1.75;;
11427;SDS011;5770;44.504;11.346;2023-02-26T09:09:17;3.30;;;1.40;;
11427;SDS011;5770;44.504;11.346;2023-02-26T09:11:45;3.83;;;1.40;;
11427;SDS011;5770;44.504;11.346;2023-02-26T09:14:13;3.30;;;1.48;;
11427;SDS011;5770;44.504;11.346;2023-02-26T09:16:41;3.95;;;1.38;;
11427;SDS011;5770;44.504;11.346;2023-02-26T09:19:08;3.65;;;1.60;;
11427;SDS011;5770;44.504;11.346;2023-02-26T09:21:35;6.32;;;1.80;;
11427;SDS011;5770;44.504;11.346;2023-02-26T09:24:02;6.13;;;1.70;;
11427;SDS011;5770;44.504;11.346;2023-02-26T09:26:29;3.05;;;1.40;;
11427;SDS011;5770;44.504;11.346;2023-02-26T09:28:56;2.83;;;1.60;;
11427;SDS011;5770;44.504;11.346;2023-02-26T09:31:25;4.65;;;1.85;;
11427;SDS011;5770;44.504;11.346;2023-02-26T09:33:52;7.53;;;2.13;;
11427;SDS011;5770;44.504;11.346;2023-02-26T09:36:19;6.50;;;1.73;;
11427;SDS011;5770;44.504;11.346;2023-02-26T09:38:46;4.25;;;1.60;;
11427;SDS011;5770;44.504;11.346;2023-02-26T09:41:18;5.70;;;2.13;;
11427;SDS011;5770;44.504;11.346;2023-02-26T09:46:41;6.25;;;1.58;;
11427;SDS011;5770;44.504;11.346;2023-02-26T09:49:16;7.07;;;1.98;;
11427;SDS011;5770;44.504;11.346;2023-02-26T09:51:45;5.28;;;2.08;;
11427;SDS011;5770;44.504;11.346;2023-02-26T09:54:18;8.43;;;2.10;;
11427;SDS011;5770;44.504;11.346;2023-02-26T09:56:47;4.72;;;1.63;;
11427;SDS011;5770;44.504;11.346;2023-02-26T09:59:16;7.35;;;1.92;;
11427;SDS011;5770;44.504;11.346;2023-02-26T10:01:47;5.13;;;1.60;;
11427;SDS011;5770;44.504;11.346;2023-02-26T10:04:20;4.15;;;1.67;;
11427;SDS011;5770;44.504;11.346;2023-02-26T10:07:14;5.95;;;1.60;;
11427;SDS011;5770;44.504;11.346;2023-02-26T10:09:46;6.20;;;1.95;;
11427;SDS011;5770;44.504;11.346;2023-02-26T10:12:18;5.65;;;1.60;;
11427;SDS011;5770;44.504;11.346;2023-02-26T10:14:48;4.55;;;1.55;;
11427;SDS011;5770;44.504;11.346;2023-02-26T10:17:22;4.55;;;1.63;;
11427;SDS011;5770;44.504;11.346;2023-02-26T10:19:54;5.82;;;1.70;;
11427;SDS011;5770;44.504;11.346;2023-02-26T10:22:27;5.60;;;2.00;;
11427;SDS011;5770;44.504;11.346;2023-02-26T10:24:57;6.53;;;1.80;;
11427;SDS011;5770;44.504;11.346;2023-02-26T10:27:44;5.85;;;1.75;;
11427;SDS011;5770;44.504;11.346;2023-02-26T10:30:21;6.82;;;2.10;;
11427;SDS011;5770;44.504;11.346;2023-02-26T10:32:59;9.32;;;3.42;;
11427;SDS011;5770;44.504;11.346;2023-02-26T10:35:34;5.72;;;1.73;;
11427;SDS011;5770;44.504;11.346;2023-02-26T10:38:04;6.95;;;2.10;;
11427;SDS011;5770;44.504;11.346;2023-02-26T10:40:37;5.95;;;2.15;;
11427;SDS011;5770;44.504;11.346;2023-02-26T10:43:08;6.38;;;1.63;;
11427;SDS011;5770;44.504;11.346;2023-02-26T10:45:41;6.30;;;1.92;;
11427;SDS011;5770;44.504;11.346;2023-02-26T10:48:23;8.07;;;1.95;;
11427;SDS011;5770;44.504;11.346;2023-02-26T10:50:53;3.47;;;1.60;;
11427;SDS011;5770;44.504;11.346;2023-02-26T10:53:21;5.60;;;1.80;;
11427;SDS011;5770;44.504;11.346;2023-02-26T10:55:50;8.18;;;2.20;;
11427;SDS011;5770;44.504;11.346;2023-02-26T10:58:22;5.72;;;1.85;;
11427;SDS011;5770;44.504;11.346;2023-02-26T11:00:50;9.93;;;2.17;;
11427;SDS011;5770;44.504;11.346;2023-02-26T11:03:19;6.65;;;2.35;;
11427;SDS011;5770;44.504;11.346;2023-02-26T11:05:49;6.72;;;2.03;;
11427;SDS011;5770;44.504;11.346;2023-02-26T11:08:17;5.20;;;2.67;;
11427;SDS011;5770;44.504;11.346;2023-02-26T11:10:53;6.32;;;2.20;;
11427;SDS011;5770;44.504;11.346;2023-02-26T11:13:21;9.07;;;1.95;;
11427;SDS011;5770;44.504;11.346;2023-02-26T11:15:53;5.90;;;1.95;;
11427;SDS011;5770;44.504;11.346;2023-02-26T11:18:24;7.40;;;2.13;;
11427;SDS011;5770;44.504;11.346;2023-02-26T11:20:55;9.07;;;2.58;;
11427;SDS011;5770;44.504;11.346;2023-02-26T11:23:26;8.60;;;2.50;;
11427;SDS011;5770;44.504;11.346;2023-02-26T11:25:58;8.52;;;2.22;;
11427;SDS011;5770;44.504;11.346;2023-02-26T11:28:29;9.05;;;2.50;;
11427;SDS011;5770;44.504;11.346;2023-02-26T11:31:00;6.28;;;2.60;;
11427;SDS011;5770;44.504;11.346;2023-02-26T11:33:31;9.73;;;2.30;;
11427;SDS011;5770;44.504;11.346;2023-02-26T11:36:06;6.32;;;2.30;;
11427;SDS011;5770;44.504;11.346;2023-02-26T11:38:34;13.07;;;2.72;;
11427;SDS011;5770;44.504;11.346;2023-02-26T11:41:02;7.90;;;2.45;;
11427;SDS011;5770;44.504;11.346;2023-02-26T11:43:33;8.40;;;2.78;;
11427;SDS011;5770;44.504;11.346;2023-02-26T11:46:01;9.98;;;2.70;;
11427;SDS011;5770;44.504;11.346;2023-02-26T11:48:37;7.38;;;1.95;;
11427;SDS011;5770;44.504;11.346;2023-02-26T11:51:06;11.25;;;3.00;;
11427;SDS011;5770;44.504;11.346;2023-02-26T11:53:36;11.32;;;2.55;;
11427;SDS011;5770;44.504;11.346;2023-02-26T11:56:08;11.20;;;2.60;;
11427;SDS011;5770;44.504;11.346;2023-02-26T11:58:37;7.45;;;2.55;;
11427;SDS011;5770;44.504;11.346;2023-02-26T12:01:06;7.55;;;2.97;;
11427;SDS011;5770;44.504;11.346;2023-02-26T12:03:36;10.80;;;2.78;;
11427;SDS011;5770;44.504;11.346;2023-02-26T12:06:06;8.32;;;2.50;;
11427;SDS011;5770;44.504;11.346;2023-02-26T12:08:37;7.43;;;2.53;;
11427;SDS011;5770;44.504;11.346;2023-02-26T12:13:56;8.70;;;3.22;;
11427;SDS011;5770;44.504;11.346;2023-02-26T12:16:32;13.23;;;3.30;;
11427;SDS011;5770;44.504;11.346;2023-02-26T12:19:05;8.45;;;2.75;;
11427;SDS011;5770;44.504;11.346;2023-02-26T12:21:53;7.85;;;2.70;;
11427;SDS011;5770;44.504;11.346;2023-02-26T12:24:37;9.75;;;2.83;;
11427;SDS011;5770;44.504;11.346;2023-02-26T12:27:09;6.28;;;2.70;;
11427;SDS011;5770;44.504;11.346;2023-02-26T12:29:47;6.00;;;2.67;;
11427;SDS011;5770;44.504;11.346;2023-02-26T12:32:35;6.65;;;2.50;;
11427;SDS011;5770;44.504;11.346;2023-02-26T12:35:13;10.10;;;3.10;;
11427;SDS011;5770;44.504;11.346;2023-02-26T12:37:48;8.18;;;2.45;;
11427;SDS011;5770;44.504;11.346;2023-02-26T12:40:20;8.40;;;2.70;;
11427;SDS011;5770;44.504;11.346;2023-02-26T12:43:01;8.73;;;2.72;;
11427;SDS011;5770;44.504;11.346;2023-02-26T12:45:36;11.65;;;3.13;;
11427;SDS011;5770;44.504;11.346;2023-02-26T12:48:27;9.13;;;2.58;;
11427;SDS011;5770;44.504;11.346;2023-02-26T12:51:00;7.40;;;2.75;;
11427;SDS011;5770;44.504;11.346;2023-02-26T12:59:13;10.20;;;3.00;;
11427;SDS011;5770;44.504;11.346;2023-02-26T13:01:57;12.90;;;4.03;;
11427;SDS011;5770;44.504;11.346;2023-02-26T13:07:46;5.00;;;2.38;;
11427;SDS011;5770;44.504;11.346;2023-02-26T13:10:28;7.95;;;2.33;;
11427;SDS011;5770;44.504;11.346;2023-02-26T13:13:12;6.07;;;2.85;;
11427;SDS011;5770;44.504;11.346;2023-02-26T13:15:55;7.53;;;2.40;;
11427;SDS011;5770;44.504;11.346;2023-02-26T13:18:26;9.38;;;2.10;;
11427;SDS011;5770;44.504;11.346;2023-02-26T13:20:56;8.15;;;2.40;;
11427;SDS011;5770;44.504;11.346;2023-02-26T13:23:29;7.50;;;2.33;;
11427;SDS011;5770;44.504;11.346;2023-02-26T13:26:01;6.05;;;2.30;;
11427;SDS011;5770;44.504;11.346;2023-02-26T13:28:34;7.63;;;2.63;;
11427;SDS011;5770;44.504;11.346;2023-02-26T13:31:03;7.18;;;3.03;;
11427;SDS011;5770;44.504;11.346;2023-02-26T13:33:32;15.93;;;8.18;;
11427;SDS011;5770;44.504;11.346;2023-02-26T13:36:00;10.98;;;3.28;;
11427;SDS011;5770;44.504;11.346;2023-02-26T13:38:32;12.13;;;3.10;;
11427;SDS011;5770;44.504;11.346;2023-02-26T13:41:04;7.20;;;2.15;;
11427;SDS011;5770;44.504;11.346;2023-02-26T13:43:40;6.97;;;2.28;;
11427;SDS011;5770;44.504;11.346;2023-02-26T13:46:22;11.43;;;2.72;;
11427;SDS011;5770;44.504;11.346;2023-02-26T13:49:03;9.00;;;2.67;;
11427;SDS011;5770;44.504;11.346;2023-02-26T13:51:38;9.10;;;2.50;;
11427;SDS011;5770;44.504;11.346;2023-02-26T13:54:06;7.88;;;2.40;;
11427;SDS011;5770;44.504;11.346;2023-02-26T13:56:47;5.47;;;2.50;;
11427;SDS011;5770;44.504;11.346;2023-02-26T13:59:28;6.50;;;2.08;;
11427;SDS011;5770;44.504;11.346;2023-02-26T14:02:02;5.68;;;2.33;;
11427;SDS011;5770;44.504;11.346;2023-02-26T14:04:30;12.52;;;2.78;;
11427;SDS011;5770;44.504;11.346;2023-02-26T14:06:57;6.22;;;1.88;;
11427;SDS011;5770;44.504;11.346;2023-02-26T14:09:29;6.72;;;2.00;;
11427;SDS011;5770;44.504;11.346;2023-02-26T14:11:57;6.53;;;2.22;;
11427;SDS011;5770;44.504;11.346;2023-02-26T14:14:32;10.00;;;2.58;;
11427;SDS011;5770;44.504;11.346;2023-02-26T14:17:25;5.20;;;2.47;;
11427;SDS011;5770;44.504;11.346;2023-02-26T14:22:51;11.20;;;2.63;;
11427;SDS011;5770;44.504;11.346;2023-02-26T14:25:20;8.23;;;2.85;;
11427;SDS011;5770;44.504;11.346;2023-02-26T14:28:16;5.28;;;2.42;;
11427;SDS011;5770;44.504;11.346;2023-02-26T14:31:05;5.05;;;2.30;;
11427;SDS011;5770;44.504;11.346;2023-02-26T14:33:39;7.78;;;2.35;;
11427;SDS011;5770;44.504;11.346;2023-02-26T14:36:10;5.95;;;2.50;;
11427;SDS011;5770;44.504;11.346;2023-02-26T14:38:46;7.38;;;2.85;;
11427;SDS011;5770;44.504;11.346;2023-02-26T14:41:22;8.27;;;2.42;;
11427;SDS011;5770;44.504;11.346;2023-02-26T14:43:52;7.53;;;2.15;;
11427;SDS011;5770;44.504;11.346;2023-02-26T14:46:23;5.13;;;2.33;;
11427;SDS011;5770;44.504;11.346;2023-02-26T14:48:50;3.42;;;1.98;;
11427;SDS011;5770;44.504;11.346;2023-02-26T14:51:20;5.88;;;2.42;;
11427;SDS011;5770;44.504;11.346;2023-02-26T14:53:55;3.53;;;1.83;;
11427;SDS011;5770;44.504;11.346;2023-02-26T14:56:26;4.38;;;2.25;;
11427;SDS011;5770;44.504;11.346;2023-02-26T14:59:06;6.22;;;2.25;;
11427;SDS011;5770;44.504;11.346;2023-02-26T15:01:47;8.02;;;2.40;;
11427;SDS011;5770;44.504;11.346;2023-02-26T15:04:31;6.75;;;2.25;;
11427;SDS011;5770;44.504;11.346;2023-02-26T15:07:28;4.35;;;2.50;;
11427;SDS011;5770;44.504;11.346;2023-02-26T15:10:14;5.63;;;2.38;;
11427;SDS011;5770;44.504;11.346;2023-02-26T15:12:54;8.38;;;2.28;;
11427;SDS011;5770;44.504;11.346;2023-02-26T15:15:32;6.72;;;2.20;;
11427;SDS011;5770;44.504;11.346;2023-02-26T15:18:05;8.55;;;2.50;;
11427;SDS011;5770;44.504;11.346;2023-02-26T15:20:42;5.97;;;2.58;;
11427;SDS011;5770;44.504;11.346;2023-02-26T15:26:05;5.60;;;2.20;;
11427;SDS011;5770;44.504;11.346;2023-02-26T15:28:36;4.07;;;2.40;;